This is the latest recevied weather packets stored in our database for station/object E27ASY-4. If no packets are shown the sender has not sent any weather packets the latest 1 day(s).
| Time | Temp. | Humidity | Pressure | Rain* | Wind** | Luminosity | Snow |
|---|---|---|---|---|---|---|---|
| 1778054597 | 32.78° C | 99% | 1003 hPa | - | - | 0 W/m² | - |
| 1778053953 | 32.22° C | 97% | 1003 hPa | - | - | 0 W/m² | - |
| 1778053631 | 32.22° C | 93% | 1003 hPa | - | - | 0 W/m² | - |
| 1778053309 | 32.22° C | 99% | 1003 hPa | - | - | 0 W/m² | - |
| 1778052665 | 31.67° C | 99% | 1003 hPa | - | - | 0 W/m² | - |
| 1778052021 | 32.22° C | 99% | 1003 hPa | - | - | 0 W/m² | - |
| 1778049767 | 35.56° C | 55% | 1004 hPa | - | - | 0 W/m² | - |
| 1778049445 | 36.11° C | 57% | 1004 hPa | - | - | 0 W/m² | - |
| 1778049123 | 36.67° C | 54% | 1004 hPa | - | - | 0 W/m² | - |
| 1778048479 | 37.78° C | 48% | 1004 hPa | - | - | 0 W/m² | - |
| 1778047835 | 38.89° C | 45% | 1004 hPa | - | - | 0 W/m² | - |
| 1778047513 | 39.44° C | 44% | 1004 hPa | - | - | 0 W/m² | - |
| 1778047191 | 39.44° C | 44% | 1004 hPa | - | - | 0 W/m² | - |
| 1778046547 | 39.44° C | 45% | 1005 hPa | - | - | 0 W/m² | - |
| 1778044293 | 37.78° C | 49% | 1005 hPa | - | - | 0 W/m² | - |
| 1778043970 | 37.78° C | 47% | 1005 hPa | - | - | 0 W/m² | - |
| 1778041394 | 39.44° C | 45% | 1006 hPa | - | - | 0 W/m² | - |
| 1778041072 | 39.44° C | 45% | 1006 hPa | - | - | 0 W/m² | - |
| 1778039784 | 39.44° C | 47% | 1006 hPa | - | - | 0 W/m² | - |
| 1778039141 | 40° C | 45% | 1007 hPa | - | - | 0 W/m² | - |
| 1778038818 | 40° C | 46% | 1007 hPa | - | - | 0 W/m² | - |
| 1778038175 | 39.44° C | 48% | 1007 hPa | - | - | 0 W/m² | - |
| 1778037852 | 38.89° C | 48% | 1007 hPa | - | - | 0 W/m² | - |
| 1778037530 | 39.44° C | 46% | 1007 hPa | - | - | 0 W/m² | - |
| 1778036887 | 38.89° C | 48% | 1007 hPa | - | - | 0 W/m² | - |
* Rain since midnight (hover to see other rain measurements)
** Current wind speed in m/s (hover to see current wind gust speed)